Abbeville, MS (38601)

6:02 AM CST on February 13, 2016 (GMT -0600)
Twelve Oaks Subdivision | | Change Station
CLOSE
Current Station
Personal Weather Station
Location: Oxford, MS
Elevation: 404 ft
Nearby Weather Stations

Elev 404 ft 34.40 °N, 89.56 °W | Updated 7 minutes ago

Clear
Clear
27.1 °F
Feels Like 27 °F
N
1.7
Wind Variable Wind from SW

Today
High -- | Low -- °F
--% Chance of Precip.
Yesterday
High -- | Low -- °F
Precip. -- in
Pressure 30.50 in
Visibility 10.0 miles
Clouds Clear
Windchill 27 °F
Dew Point 15 °F
Humidity 60%
Rainfall 0.00 in
Snow Depth Not available.
6:46 AM 5:39 PM
Waxing Crescent, 30% visible
METAR KUOX 131135Z AUTO 01006KT 10SM CLR M03/M10 A3050 RMK AO2 PWINO PNO
Pressure 30.50 in
Visibility 10.0 miles
Clouds Clear
Windchill 27 °F
Dew Point 15 °F
Humidity 60%
Rainfall 0.00 in
Snow Depth Not available.
6:46 AM 5:39 PM
Waxing Crescent, 30% visible
METAR KUOX 131135Z AUTO 01006KT 10SM CLR M03/M10 A3050 RMK AO2 PWINO PNO

10-Day Weather Forecast

Almanac

Astronomy

Feb. 13, 2016 Rise Set
Actual Time
Civil Twilight
Nautical Twilight
Astronomical Twilight
Moon
Length of Visible Light
Length of Day
Tomorrow will be .
, % of the Moon is Illuminated

Today's Extremes

State Highs State Lows

Community

WunderPhotos

Upload Photos

1,892,541 photos uploaded!

WunderBlog® & News

Nearby

Air Quality

  Air Quality AQ Index Pollutant
Not available.

Snow Depth

Station Depth Elevation

Earthquake Activity

City Distance Mag. Time & Date
Minimum magnitude displayed is 2.5.

Coastal Water Temperatures

Place Temperature

Stations

Nearby Weather Stations

Station Location Temp. Windchill Dew Point Humidity Wind Precip. Elev Updated Type
                   

Watches & Warnings

There are currently no watches in effect.